sensor_id;sensor_type;location;lat;lon;timestamp;pressure;altitude;pressure_sealevel;temperature;humidity
63006;BME280;53704;52.532;6.426;2023-06-22T02:11:23;101931.22;;;16.73;100.00
63006;BME280;53704;52.532;6.426;2023-06-22T02:13:52;101924.88;;;16.50;100.00
63006;BME280;53704;52.532;6.426;2023-06-22T02:16:19;101918.25;;;16.44;100.00
63006;BME280;53704;52.532;6.426;2023-06-22T02:18:48;101928.53;;;16.65;100.00
63006;BME280;53704;52.532;6.426;2023-06-22T02:21:17;101928.81;;;16.39;100.00
63006;BME280;53704;52.532;6.426;2023-06-22T02:23:43;101923.41;;;16.22;100.00
63006;BME280;53704;52.532;6.426;2023-06-22T02:26:09;101929.00;;;16.37;100.00
63006;BME280;53704;52.532;6.426;2023-06-22T02:28:35;101921.53;;;16.31;100.00
63006;BME280;53704;52.532;6.426;2023-06-22T02:31:00;101923.16;;;16.49;100.00
63006;BME280;53704;52.532;6.426;2023-06-22T02:33:26;101919.88;;;16.61;100.00
63006;BME280;53704;52.532;6.426;2023-06-22T02:35:52;101920.94;;;16.52;100.00
63006;BME280;53704;52.532;6.426;2023-06-22T02:38:18;101921.13;;;16.51;100.00
63006;BME280;53704;52.532;6.426;2023-06-22T02:40:44;101920.25;;;16.10;100.00
63006;BME280;53704;52.532;6.426;2023-06-22T02:43:10;101917.53;;;16.10;100.00
63006;BME280;53704;52.532;6.426;2023-06-22T02:45:35;101920.41;;;16.09;100.00
63006;BME280;53704;52.532;6.426;2023-06-22T02:48:01;101915.66;;;16.11;100.00
63006;BME280;53704;52.532;6.426;2023-06-22T02:50:26;101913.28;;;16.16;100.00
63006;BME280;53704;52.532;6.426;2023-06-22T02:52:51;101914.63;;;16.12;100.00
63006;BME280;53704;52.532;6.426;2023-06-22T02:55:17;101922.41;;;16.23;100.00
63006;BME280;53704;52.532;6.426;2023-06-22T02:57:42;101922.13;;;16.10;100.00
63006;BME280;53704;52.532;6.426;2023-06-22T03:00:10;101916.00;;;16.00;100.00
63006;BME280;53704;52.532;6.426;2023-06-22T03:02:46;101918.53;;;16.09;100.00
63006;BME280;53704;52.532;6.426;2023-06-22T03:05:12;101921.78;;;15.97;100.00
63006;BME280;53704;52.532;6.426;2023-06-22T03:07:40;101934.84;;;16.01;100.00
63006;BME280;53704;52.532;6.426;2023-06-22T03:10:07;101928.38;;;16.10;100.00
63006;BME280;53704;52.532;6.426;2023-06-22T03:12:34;101931.78;;;16.13;100.00
63006;BME280;53704;52.532;6.426;2023-06-22T03:15:00;101925.50;;;16.12;100.00
63006;BME280;53704;52.532;6.426;2023-06-22T03:17:25;101918.72;;;16.08;100.00
63006;BME280;53704;52.532;6.426;2023-06-22T03:19:50;101929.56;;;16.08;100.00
63006;BME280;53704;52.532;6.426;2023-06-22T03:22:16;101919.53;;;16.17;100.00
63006;BME280;53704;52.532;6.426;2023-06-22T03:24:41;101921.66;;;15.82;100.00
63006;BME280;53704;52.532;6.426;2023-06-22T03:27:07;101912.66;;;15.81;100.00
63006;BME280;53704;52.532;6.426;2023-06-22T03:29:32;101915.19;;;15.83;100.00
63006;BME280;53704;52.532;6.426;2023-06-22T03:31:57;101923.34;;;15.91;100.00
63006;BME280;53704;52.532;6.426;2023-06-22T03:34:23;101912.97;;;16.03;100.00
63006;BME280;53704;52.532;6.426;2023-06-22T03:36:48;101919.78;;;15.74;100.00
63006;BME280;53704;52.532;6.426;2023-06-22T03:39:17;101919.25;;;15.62;100.00
63006;BME280;53704;52.532;6.426;2023-06-22T03:41:42;101925.88;;;15.60;100.00
63006;BME280;53704;52.532;6.426;2023-06-22T03:44:07;101922.00;;;15.70;100.00
63006;BME280;53704;52.532;6.426;2023-06-22T03:46:37;101928.09;;;15.81;100.00
63006;BME280;53704;52.532;6.426;2023-06-22T03:49:03;101920.94;;;15.71;100.00
63006;BME280;53704;52.532;6.426;2023-06-22T03:51:29;101917.25;;;15.81;100.00
63006;BME280;53704;52.532;6.426;2023-06-22T03:53:54;101923.00;;;15.86;100.00
63006;BME280;53704;52.532;6.426;2023-06-22T03:56:20;101919.78;;;15.82;100.00
63006;BME280;53704;52.532;6.426;2023-06-22T03:58:46;101920.97;;;15.63;100.00
63006;BME280;53704;52.532;6.426;2023-06-22T04:01:11;101921.81;;;15.72;100.00
63006;BME280;53704;52.532;6.426;2023-06-22T04:03:37;101912.13;;;15.86;100.00
63006;BME280;53704;52.532;6.426;2023-06-22T04:06:03;101903.84;;;15.79;100.00
63006;BME280;53704;52.532;6.426;2023-06-22T04:08:29;101901.28;;;15.69;100.00
63006;BME280;53704;52.532;6.426;2023-06-22T04:10:55;101906.72;;;15.69;100.00
63006;BME280;53704;52.532;6.426;2023-06-22T04:13:20;101909.09;;;15.72;100.00
63006;BME280;53704;52.532;6.426;2023-06-22T04:15:46;101915.72;;;15.53;100.00
63006;BME280;53704;52.532;6.426;2023-06-22T04:18:11;101907.56;;;15.45;100.00
63006;BME280;53704;52.532;6.426;2023-06-22T04:20:36;101913.16;;;15.52;100.00
63006;BME280;53704;52.532;6.426;2023-06-22T04:23:02;101928.94;;;15.65;100.00
63006;BME280;53704;52.532;6.426;2023-06-22T04:25:27;101921.97;;;15.46;100.00
63006;BME280;53704;52.532;6.426;2023-06-22T04:27:53;101923.50;;;15.40;100.00
63006;BME280;53704;52.532;6.426;2023-06-22T04:30:19;101921.66;;;15.41;100.00
63006;BME280;53704;52.532;6.426;2023-06-22T04:32:44;101924.53;;;15.55;100.00
63006;BME280;53704;52.532;6.426;2023-06-22T04:35:10;101919.28;;;15.46;100.00
63006;BME280;53704;52.532;6.426;2023-06-22T04:37:36;101914.88;;;15.61;100.00
63006;BME280;53704;52.532;6.426;2023-06-22T04:40:03;101916.72;;;15.69;100.00
63006;BME280;53704;52.532;6.426;2023-06-22T04:42:30;101915.75;;;15.78;100.00
63006;BME280;53704;52.532;6.426;2023-06-22T04:44:57;101911.63;;;15.90;100.00
63006;BME280;53704;52.532;6.426;2023-06-22T04:47:22;101914.53;;;15.81;100.00
63006;BME280;53704;52.532;6.426;2023-06-22T04:49:48;101907.22;;;15.81;100.00
63006;BME280;53704;52.532;6.426;2023-06-22T04:52:13;101904.81;;;15.70;100.00
63006;BME280;53704;52.532;6.426;2023-06-22T04:54:45;101907.75;;;15.85;100.00
63006;BME280;53704;52.532;6.426;2023-06-22T04:57:13;101908.09;;;15.82;100.00
63006;BME280;53704;52.532;6.426;2023-06-22T04:59:39;101907.03;;;15.83;100.00
63006;BME280;53704;52.532;6.426;2023-06-22T05:02:06;101902.97;;;15.87;100.00
63006;BME280;53704;52.532;6.426;2023-06-22T05:04:32;101897.88;;;15.92;100.00
63006;BME280;53704;52.532;6.426;2023-06-22T05:06:59;101895.69;;;15.96;100.00
63006;BME280;53704;52.532;6.426;2023-06-22T05:09:30;101898.41;;;15.96;100.00
63006;BME280;53704;52.532;6.426;2023-06-22T05:11:55;101896.50;;;16.04;100.00
63006;BME280;53704;52.532;6.426;2023-06-22T05:14:24;101901.09;;;16.04;100.00
63006;BME280;53704;52.532;6.426;2023-06-22T05:16:50;101894.97;;;16.10;100.00
63006;BME280;53704;52.532;6.426;2023-06-22T05:19:17;101891.50;;;16.24;100.00
63006;BME280;53704;52.532;6.426;2023-06-22T05:21:42;101902.16;;;16.34;100.00
63006;BME280;53704;52.532;6.426;2023-06-22T05:24:08;101905.19;;;16.39;100.00
63006;BME280;53704;52.532;6.426;2023-06-22T05:26:34;101899.19;;;16.52;100.00
63006;BME280;53704;52.532;6.426;2023-06-22T05:29:01;101909.34;;;16.58;100.00
63006;BME280;53704;52.532;6.426;2023-06-22T05:31:27;101907.16;;;16.62;100.00
63006;BME280;53704;52.532;6.426;2023-06-22T05:33:54;101900.84;;;16.61;100.00
63006;BME280;53704;52.532;6.426;2023-06-22T05:36:20;101899.78;;;16.71;100.00
63006;BME280;53704;52.532;6.426;2023-06-22T05:38:46;101895.34;;;16.78;100.00
63006;BME280;53704;52.532;6.426;2023-06-22T05:41:12;101901.09;;;16.83;100.00
63006;BME280;53704;52.532;6.426;2023-06-22T05:43:39;101896.66;;;16.82;100.00
63006;BME280;53704;52.532;6.426;2023-06-22T05:46:04;101896.59;;;16.98;100.00
63006;BME280;53704;52.532;6.426;2023-06-22T05:48:30;101902.34;;;17.04;100.00
63006;BME280;53704;52.532;6.426;2023-06-22T05:50:56;101897.13;;;17.17;100.00
63006;BME280;53704;52.532;6.426;2023-06-22T05:53:22;101898.13;;;17.24;100.00
63006;BME280;53704;52.532;6.426;2023-06-22T05:55:47;101905.63;;;17.22;100.00
63006;BME280;53704;52.532;6.426;2023-06-22T05:58:13;101901.59;;;17.33;100.00
63006;BME280;53704;52.532;6.426;2023-06-22T06:00:39;101906.47;;;17.46;100.00
63006;BME280;53704;52.532;6.426;2023-06-22T06:03:06;101915.28;;;17.48;100.00
63006;BME280;53704;52.532;6.426;2023-06-22T06:05:32;101915.75;;;17.51;100.00
63006;BME280;53704;52.532;6.426;2023-06-22T06:07:59;101917.28;;;17.69;100.00
63006;BME280;53704;52.532;6.426;2023-06-22T06:10:25;101913.38;;;17.71;100.00
63006;BME280;53704;52.532;6.426;2023-06-22T06:12:51;101920.84;;;17.93;100.00
63006;BME280;53704;52.532;6.426;2023-06-22T06:15:17;101916.25;;;18.08;100.00
63006;BME280;53704;52.532;6.426;2023-06-22T06:17:49;101908.53;;;18.12;100.00
63006;BME280;53704;52.532;6.426;2023-06-22T06:20:17;101914.66;;;18.14;100.00
63006;BME280;53704;52.532;6.426;2023-06-22T06:22:43;101908.06;;;18.23;100.00
63006;BME280;53704;52.532;6.426;2023-06-22T06:25:09;101915.59;;;18.21;100.00
63006;BME280;53704;52.532;6.426;2023-06-22T06:27:34;101910.22;;;18.27;100.00
63006;BME280;53704;52.532;6.426;2023-06-22T06:30:01;101907.69;;;18.26;100.00
63006;BME280;53704;52.532;6.426;2023-06-22T06:32:27;101900.66;;;18.32;100.00
63006;BME280;53704;52.532;6.426;2023-06-22T06:34:52;101896.56;;;18.57;100.00
63006;BME280;53704;52.532;6.426;2023-06-22T06:37:18;101897.13;;;18.68;100.00
63006;BME280;53704;52.532;6.426;2023-06-22T06:39:44;101904.19;;;18.62;100.00
63006;BME280;53704;52.532;6.426;2023-06-22T06:42:10;101899.38;;;18.64;100.00
63006;BME280;53704;52.532;6.426;2023-06-22T06:44:36;101900.13;;;18.73;100.00
63006;BME280;53704;52.532;6.426;2023-06-22T06:47:03;101892.59;;;18.90;100.00
63006;BME280;53704;52.532;6.426;2023-06-22T06:49:29;101896.72;;;18.86;100.00
63006;BME280;53704;52.532;6.426;2023-06-22T06:51:55;101900.78;;;18.90;100.00
63006;BME280;53704;52.532;6.426;2023-06-22T06:54:21;101904.94;;;19.07;100.00
63006;BME280;53704;52.532;6.426;2023-06-22T06:56:47;101907.78;;;19.21;100.00
63006;BME280;53704;52.532;6.426;2023-06-22T06:59:14;101908.72;;;19.28;100.00
63006;BME280;53704;52.532;6.426;2023-06-22T07:01:41;101898.78;;;19.20;100.00
63006;BME280;53704;52.532;6.426;2023-06-22T07:04:06;101895.25;;;19.26;100.00
63006;BME280;53704;52.532;6.426;2023-06-22T07:06:32;101894.97;;;19.43;100.00
63006;BME280;53704;52.532;6.426;2023-06-22T07:08:59;101895.50;;;19.53;100.00
63006;BME280;53704;52.532;6.426;2023-06-22T07:11:25;101887.16;;;19.61;100.00
63006;BME280;53704;52.532;6.426;2023-06-22T07:13:50;101883.84;;;19.66;100.00
63006;BME280;53704;52.532;6.426;2023-06-22T07:16:16;101883.16;;;19.85;100.00
63006;BME280;53704;52.532;6.426;2023-06-22T07:18:41;101887.22;;;19.96;100.00
63006;BME280;53704;52.532;6.426;2023-06-22T07:21:08;101877.13;;;19.97;100.00
63006;BME280;53704;52.532;6.426;2023-06-22T07:23:34;101878.88;;;20.11;100.00
63006;BME280;53704;52.532;6.426;2023-06-22T07:26:00;101880.00;;;20.23;100.00
63006;BME280;53704;52.532;6.426;2023-06-22T07:28:31;101876.75;;;20.48;100.00
63006;BME280;53704;52.532;6.426;2023-06-22T07:31:02;101865.59;;;20.43;100.00
63006;BME280;53704;52.532;6.426;2023-06-22T07:33:29;101865.00;;;20.54;100.00
63006;BME280;53704;52.532;6.426;2023-06-22T07:35:54;101859.84;;;20.80;100.00
63006;BME280;53704;52.532;6.426;2023-06-22T07:38:20;101855.84;;;20.82;100.00
63006;BME280;53704;52.532;6.426;2023-06-22T07:40:45;101848.88;;;20.73;100.00
63006;BME280;53704;52.532;6.426;2023-06-22T07:43:11;101840.09;;;20.91;100.00
63006;BME280;53704;52.532;6.426;2023-06-22T07:45:38;101846.44;;;21.05;100.00
63006;BME280;53704;52.532;6.426;2023-06-22T07:48:05;101844.75;;;21.37;100.00
63006;BME280;53704;52.532;6.426;2023-06-22T07:50:30;101847.91;;;21.27;100.00
63006;BME280;53704;52.532;6.426;2023-06-22T07:52:56;101850.84;;;21.46;100.00
63006;BME280;53704;52.532;6.426;2023-06-22T07:55:22;101842.22;;;21.62;100.00
63006;BME280;53704;52.532;6.426;2023-06-22T07:57:48;101836.13;;;21.60;100.00
63006;BME280;53704;52.532;6.426;2023-06-22T08:00:14;101843.00;;;21.90;100.00
63006;BME280;53704;52.532;6.426;2023-06-22T08:02:42;101844.66;;;22.11;100.00
63006;BME280;53704;52.532;6.426;2023-06-22T08:05:09;101850.34;;;22.09;100.00
63006;BME280;53704;52.532;6.426;2023-06-22T08:07:35;101842.13;;;22.02;100.00
63006;BME280;53704;52.532;6.426;2023-06-22T08:10:03;101843.97;;;22.22;100.00
63006;BME280;53704;52.532;6.426;2023-06-22T08:12:29;101848.41;;;22.16;100.00
63006;BME280;53704;52.532;6.426;2023-06-22T08:14:55;101828.22;;;22.56;100.00
63006;BME280;53704;52.532;6.426;2023-06-22T08:17:23;101835.84;;;22.86;100.00
63006;BME280;53704;52.532;6.426;2023-06-22T08:19:48;101834.75;;;22.62;100.00
63006;BME280;53704;52.532;6.426;2023-06-22T08:22:16;101840.97;;;22.75;100.00
63006;BME280;53704;52.532;6.426;2023-06-22T08:24:42;101822.88;;;22.68;100.00
63006;BME280;53704;52.532;6.426;2023-06-22T08:27:07;101817.97;;;23.08;100.00
63006;BME280;53704;52.532;6.426;2023-06-22T08:29:38;101819.22;;;23.12;100.00
63006;BME280;53704;52.532;6.426;2023-06-22T08:32:04;101822.66;;;23.01;100.00
63006;BME280;53704;52.532;6.426;2023-06-22T08:34:30;101814.75;;;23.62;100.00
63006;BME280;53704;52.532;6.426;2023-06-22T08:36:56;101818.25;;;23.51;100.00
63006;BME280;53704;52.532;6.426;2023-06-22T08:39:21;101814.47;;;23.26;100.00
63006;BME280;53704;52.532;6.426;2023-06-22T08:41:47;101813.75;;;23.56;100.00
63006;BME280;53704;52.532;6.426;2023-06-22T08:44:13;101811.09;;;23.68;100.00
63006;BME280;53704;52.532;6.426;2023-06-22T08:46:39;101805.91;;;23.78;100.00
63006;BME280;53704;52.532;6.426;2023-06-22T08:49:06;101803.72;;;23.87;100.00
63006;BME280;53704;52.532;6.426;2023-06-22T08:51:32;101801.28;;;23.97;100.00
63006;BME280;53704;52.532;6.426;2023-06-22T08:53:57;101797.91;;;24.14;100.00
63006;BME280;53704;52.532;6.426;2023-06-22T08:56:23;101792.56;;;24.00;100.00
63006;BME280;53704;52.532;6.426;2023-06-22T08:58:48;101783.81;;;24.52;100.00
63006;BME280;53704;52.532;6.426;2023-06-22T09:01:14;101775.28;;;24.61;100.00
63006;BME280;53704;52.532;6.426;2023-06-22T09:03:42;101770.03;;;24.41;100.00
63006;BME280;53704;52.532;6.426;2023-06-22T09:06:08;101762.56;;;24.60;100.00
63006;BME280;53704;52.532;6.426;2023-06-22T09:08:35;101762.41;;;24.54;100.00
63006;BME280;53704;52.532;6.426;2023-06-22T09:11:01;101759.59;;;24.73;100.00
63006;BME280;53704;52.532;6.426;2023-06-22T09:13:30;101762.03;;;24.81;100.00
63006;BME280;53704;52.532;6.426;2023-06-22T09:15:55;101762.00;;;24.39;100.00
63006;BME280;53704;52.532;6.426;2023-06-22T09:18:21;101759.50;;;24.49;100.00
63006;BME280;53704;52.532;6.426;2023-06-22T09:20:46;101759.06;;;25.18;100.00
63006;BME280;53704;52.532;6.426;2023-06-22T09:23:12;101753.91;;;25.10;100.00
63006;BME280;53704;52.532;6.426;2023-06-22T09:25:40;101737.50;;;25.15;100.00
63006;BME280;53704;52.532;6.426;2023-06-22T09:28:07;101735.09;;;24.95;100.00
63006;BME280;53704;52.532;6.426;2023-06-22T09:30:32;101736.44;;;25.16;100.00
63006;BME280;53704;52.532;6.426;2023-06-22T09:32:58;101739.56;;;25.43;100.00
63006;BME280;53704;52.532;6.426;2023-06-22T09:35:23;101734.88;;;25.44;100.00
63006;BME280;53704;52.532;6.426;2023-06-22T09:37:49;101747.59;;;25.45;100.00
63006;BME280;53704;52.532;6.426;2023-06-22T09:40:14;101743.88;;;26.04;100.00
63006;BME280;53704;52.532;6.426;2023-06-22T09:42:42;101753.41;;;25.72;100.00
63006;BME280;53704;52.532;6.426;2023-06-22T09:45:08;101742.03;;;25.57;100.00
63006;BME280;53704;52.532;6.426;2023-06-22T09:47:33;101745.72;;;25.74;100.00
63006;BME280;53704;52.532;6.426;2023-06-22T09:49:59;101749.44;;;25.80;100.00
63006;BME280;53704;52.532;6.426;2023-06-22T09:52:25;101750.56;;;25.55;100.00
63006;BME280;53704;52.532;6.426;2023-06-22T09:54:50;101749.97;;;25.53;100.00
63006;BME280;53704;52.532;6.426;2023-06-22T09:57:16;101753.00;;;25.92;100.00
63006;BME280;53704;52.532;6.426;2023-06-22T09:59:41;101745.53;;;25.64;100.00
63006;BME280;53704;52.532;6.426;2023-06-22T10:02:07;101745.50;;;26.16;100.00
63006;BME280;53704;52.532;6.426;2023-06-22T10:04:34;101741.28;;;25.97;100.00
63006;BME280;53704;52.532;6.426;2023-06-22T10:07:00;101748.56;;;25.91;100.00
63006;BME280;53704;52.532;6.426;2023-06-22T10:09:26;101739.03;;;25.58;100.00
63006;BME280;53704;52.532;6.426;2023-06-22T10:11:52;101745.03;;;25.67;100.00
63006;BME280;53704;52.532;6.426;2023-06-22T10:14:18;101738.75;;;25.83;100.00
63006;BME280;53704;52.532;6.426;2023-06-22T10:16:44;101736.75;;;26.20;100.00
63006;BME280;53704;52.532;6.426;2023-06-22T10:19:10;101741.31;;;25.73;100.00
63006;BME280;53704;52.532;6.426;2023-06-22T10:21:36;101729.50;;;26.02;100.00
63006;BME280;53704;52.532;6.426;2023-06-22T10:24:01;101731.81;;;25.81;100.00
63006;BME280;53704;52.532;6.426;2023-06-22T10:26:33;101723.63;;;25.98;100.00
63006;BME280;53704;52.532;6.426;2023-06-22T10:29:00;101721.69;;;25.58;100.00
63006;BME280;53704;52.532;6.426;2023-06-22T10:31:26;101728.09;;;25.75;100.00
63006;BME280;53704;52.532;6.426;2023-06-22T10:33:54;101719.91;;;26.33;100.00
63006;BME280;53704;52.532;6.426;2023-06-22T10:36:19;101714.72;;;25.96;100.00
63006;BME280;53704;52.532;6.426;2023-06-22T10:38:45;101723.19;;;26.18;100.00
63006;BME280;53704;52.532;6.426;2023-06-22T10:41:12;101717.06;;;26.45;100.00
63006;BME280;53704;52.532;6.426;2023-06-22T10:43:37;101708.16;;;26.71;100.00
63006;BME280;53704;52.532;6.426;2023-06-22T10:46:03;101710.44;;;26.63;100.00
63006;BME280;53704;52.532;6.426;2023-06-22T10:48:28;101712.97;;;26.64;100.00
63006;BME280;53704;52.532;6.426;2023-06-22T10:50:54;101727.44;;;26.54;100.00
63006;BME280;53704;52.532;6.426;2023-06-22T10:53:19;101718.31;;;26.54;100.00
63006;BME280;53704;52.532;6.426;2023-06-22T10:55:45;101724.81;;;26.31;100.00
63006;BME280;53704;52.532;6.426;2023-06-22T10:58:10;101731.56;;;26.23;100.00
63006;BME280;53704;52.532;6.426;2023-06-22T11:00:36;101730.94;;;26.33;100.00
63006;BME280;53704;52.532;6.426;2023-06-22T11:03:02;101729.28;;;26.20;99.54
63006;BME280;53704;52.532;6.426;2023-06-22T11:05:27;101731.94;;;26.44;100.00
63006;BME280;53704;52.532;6.426;2023-06-22T11:07:53;101736.09;;;26.29;100.00
63006;BME280;53704;52.532;6.426;2023-06-22T11:10:18;101733.53;;;25.70;100.00
63006;BME280;53704;52.532;6.426;2023-06-22T11:12:44;101725.44;;;25.92;100.00
63006;BME280;53704;52.532;6.426;2023-06-22T11:15:09;101727.72;;;26.24;100.00
63006;BME280;53704;52.532;6.426;2023-06-22T11:17:35;101726.38;;;25.57;100.00
63006;BME280;53704;52.532;6.426;2023-06-22T11:20:01;101716.19;;;25.87;100.00
63006;BME280;53704;52.532;6.426;2023-06-22T11:22:26;101712.88;;;26.13;100.00
63006;BME280;53704;52.532;6.426;2023-06-22T11:24:52;101708.44;;;26.41;100.00
63006;BME280;53704;52.532;6.426;2023-06-22T11:27:17;101707.44;;;26.02;100.00
63006;BME280;53704;52.532;6.426;2023-06-22T11:29:43;101715.50;;;26.66;100.00
63006;BME280;53704;52.532;6.426;2023-06-22T11:32:09;101709.59;;;26.74;100.00
63006;BME280;53704;52.532;6.426;2023-06-22T11:34:37;101710.09;;;26.71;100.00
63006;BME280;53704;52.532;6.426;2023-06-22T11:37:03;101714.22;;;26.40;99.27
63006;BME280;53704;52.532;6.426;2023-06-22T11:39:28;101704.09;;;26.62;99.34
63006;BME280;53704;52.532;6.426;2023-06-22T11:41:53;101694.72;;;26.46;100.00
63006;BME280;53704;52.532;6.426;2023-06-22T11:44:19;101693.97;;;26.85;100.00
63006;BME280;53704;52.532;6.426;2023-06-22T11:46:44;101683.38;;;26.77;100.00
63006;BME280;53704;52.532;6.426;2023-06-22T11:49:10;101678.63;;;27.11;99.53
63006;BME280;53704;52.532;6.426;2023-06-22T11:51:35;101680.09;;;26.80;100.00
63006;BME280;53704;52.532;6.426;2023-06-22T11:54:01;101681.69;;;26.76;97.91
63006;BME280;53704;52.532;6.426;2023-06-22T11:56:28;101667.97;;;26.81;100.00
63006;BME280;53704;52.532;6.426;2023-06-22T11:58:53;101661.50;;;26.92;98.67
63006;BME280;53704;52.532;6.426;2023-06-22T12:01:19;101661.38;;;26.65;100.00
63006;BME280;53704;52.532;6.426;2023-06-22T12:03:45;101663.03;;;26.83;99.80
63006;BME280;53704;52.532;6.426;2023-06-22T12:06:10;101660.59;;;26.86;100.00
63006;BME280;53704;52.532;6.426;2023-06-22T12:08:36;101658.75;;;26.92;100.00
63006;BME280;53704;52.532;6.426;2023-06-22T12:11:01;101656.19;;;26.68;100.00
63006;BME280;53704;52.532;6.426;2023-06-22T12:13:27;101650.31;;;27.21;98.74
63006;BME280;53704;52.532;6.426;2023-06-22T12:15:52;101647.34;;;27.27;98.85
63006;BME280;53704;52.532;6.426;2023-06-22T12:18:18;101631.41;;;26.74;95.59
63006;BME280;53704;52.532;6.426;2023-06-22T12:20:46;101632.75;;;27.10;98.85
63006;BME280;53704;52.532;6.426;2023-06-22T12:23:11;101633.16;;;26.80;96.99
63006;BME280;53704;52.532;6.426;2023-06-22T12:25:37;101637.00;;;26.79;98.00
63006;BME280;53704;52.532;6.426;2023-06-22T12:28:02;101641.66;;;26.95;100.00
63006;BME280;53704;52.532;6.426;2023-06-22T12:30:30;101642.59;;;26.50;100.00
63006;BME280;53704;52.532;6.426;2023-06-22T12:32:56;101642.16;;;26.58;100.00
63006;BME280;53704;52.532;6.426;2023-06-22T12:35:21;101632.44;;;26.89;100.00
63006;BME280;53704;52.532;6.426;2023-06-22T12:37:47;101632.72;;;26.37;97.54
63006;BME280;53704;52.532;6.426;2023-06-22T12:40:12;101638.50;;;26.35;97.56
63006;BME280;53704;52.532;6.426;2023-06-22T12:42:38;101637.50;;;25.96;100.00
63006;BME280;53704;52.532;6.426;2023-06-22T12:45:04;101631.97;;;26.42;100.00
63006;BME280;53704;52.532;6.426;2023-06-22T12:47:30;101624.44;;;25.91;99.59
63006;BME280;53704;52.532;6.426;2023-06-22T12:49:55;101627.44;;;25.90;100.00
63006;BME280;53704;52.532;6.426;2023-06-22T12:52:21;101624.94;;;26.34;100.00
63006;BME280;53704;52.532;6.426;2023-06-22T12:54:46;101621.34;;;26.16;100.00
63006;BME280;53704;52.532;6.426;2023-06-22T12:57:12;101621.19;;;25.66;100.00
63006;BME280;53704;52.532;6.426;2023-06-22T12:59:37;101620.22;;;25.43;100.00
63006;BME280;53704;52.532;6.426;2023-06-22T13:02:03;101618.63;;;25.47;100.00
63006;BME280;53704;52.532;6.426;2023-06-22T13:04:28;101620.31;;;25.48;100.00
63006;BME280;53704;52.532;6.426;2023-06-22T13:06:54;101615.22;;;25.57;100.00
63006;BME280;53704;52.532;6.426;2023-06-22T13:09:19;101613.59;;;25.44;100.00
63006;BME280;53704;52.532;6.426;2023-06-22T13:11:45;101617.09;;;25.27;100.00
63006;BME280;53704;52.532;6.426;2023-06-22T13:14:11;101615.22;;;25.04;100.00
63006;BME280;53704;52.532;6.426;2023-06-22T13:16:36;101607.28;;;25.20;100.00
63006;BME280;53704;52.532;6.426;2023-06-22T13:19:02;101614.59;;;25.14;100.00
63006;BME280;53704;52.532;6.426;2023-06-22T13:21:28;101614.38;;;25.04;100.00
63006;BME280;53704;52.532;6.426;2023-06-22T13:23:53;101608.06;;;24.68;100.00
63006;BME280;53704;52.532;6.426;2023-06-22T13:26:19;101606.50;;;24.96;100.00
63006;BME280;53704;52.532;6.426;2023-06-22T13:28:44;101602.88;;;25.07;100.00
63006;BME280;53704;52.532;6.426;2023-06-22T13:31:10;101611.06;;;24.78;100.00
63006;BME280;53704;52.532;6.426;2023-06-22T13:33:35;101596.63;;;24.29;100.00
63006;BME280;53704;52.532;6.426;2023-06-22T13:36:02;101606.22;;;24.38;100.00
63006;BME280;53704;52.532;6.426;2023-06-22T13:38:29;101599.53;;;24.46;100.00
63006;BME280;53704;52.532;6.426;2023-06-22T13:40:57;101606.91;;;24.22;100.00
63006;BME280;53704;52.532;6.426;2023-06-22T13:43:26;101612.66;;;24.32;100.00
63006;BME280;53704;52.532;6.426;2023-06-22T13:45:52;101607.38;;;24.18;100.00
63006;BME280;53704;52.532;6.426;2023-06-22T13:48:17;101616.47;;;24.19;100.00
63006;BME280;53704;52.532;6.426;2023-06-22T13:50:43;101614.50;;;23.96;100.00
63006;BME280;53704;52.532;6.426;2023-06-22T13:53:09;101616.84;;;23.06;100.00
63006;BME280;53704;52.532;6.426;2023-06-22T13:55:34;101624.75;;;23.21;100.00
63006;BME280;53704;52.532;6.426;2023-06-22T13:58:00;101625.06;;;22.44;100.00
63006;BME280;53704;52.532;6.426;2023-06-22T14:00:25;101626.38;;;22.03;100.00
63006;BME280;53704;52.532;6.426;2023-06-22T14:02:53;101627.66;;;22.00;100.00
63006;BME280;53704;52.532;6.426;2023-06-22T14:05:18;101627.44;;;22.02;100.00
63006;BME280;53704;52.532;6.426;2023-06-22T14:07:45;101616.19;;;21.78;100.00
63006;BME280;53704;52.532;6.426;2023-06-22T14:10:11;101614.53;;;21.71;100.00
63006;BME280;53704;52.532;6.426;2023-06-22T14:12:36;101611.28;;;21.48;100.00
63006;BME280;53704;52.532;6.426;2023-06-22T14:15:02;101600.72;;;21.52;100.00
63006;BME280;53704;52.532;6.426;2023-06-22T14:17:28;101600.16;;;21.37;100.00
63006;BME280;53704;52.532;6.426;2023-06-22T14:19:54;101594.47;;;21.31;100.00
63006;BME280;53704;52.532;6.426;2023-06-22T14:22:21;101577.38;;;21.49;100.00
63006;BME280;53704;52.532;6.426;2023-06-22T14:24:47;101573.44;;;21.19;100.00
63006;BME280;53704;52.532;6.426;2023-06-22T14:27:12;101562.97;;;21.09;100.00
63006;BME280;53704;52.532;6.426;2023-06-22T14:29:38;101549.88;;;21.11;100.00
63006;BME280;53704;52.532;6.426;2023-06-22T14:32:04;101540.69;;;20.99;100.00
63006;BME280;53704;52.532;6.426;2023-06-22T14:34:32;101522.56;;;20.98;100.00
63006;BME280;53704;52.532;6.426;2023-06-22T14:36:57;101517.63;;;20.68;100.00
63006;BME280;53704;52.532;6.426;2023-06-22T14:39:23;101531.28;;;20.81;100.00
63006;BME280;53704;52.532;6.426;2023-06-22T14:41:48;101539.41;;;21.01;100.00
63006;BME280;53704;52.532;6.426;2023-06-22T14:44:14;101546.16;;;21.44;100.00